Aeroporto :
LOGIN :

Iscrizione | Disclaimer

   EN    FR    IT 

 










Sommario :    VFR   VFR Marginale   IFR   IFR Intensivo   IFR Molto Intensivo
Visibilità : 
Base nubi : 
>= 8 km
>= 3000ft
5 / 8 km
1000 / 3000 ft
1500m / 5 km
500 / 1000 ft
800 / 1500m
200 / 500 ft
< 800m
< 200 ft
Simboli :   Temporali  Nebbia  Neve Forte  Precipitazioni Forti  Vento > 20 kt
SIGMETs :   Varie  Temporali  Ghiacco  Turbolenza  Onda orograficha  Ceneri Vulcaniche







- Altitudine del aeroporto : 0 ft


ETEB - Ansbach Army Heliport

ULTIMO METAR :
  • 161956Z AUTO 02003KT 9999 BKN120 15/07 A3012 RMK AO2 SLP208 T01500073 $

METARs OBSOLETI :
  • 161856Z AUTO 00000KT 9999 CLR 15/07 A3012 RMK AO2 SLP212 T01470070 $
  • 161756Z 01004KT 9999 CLR 17/07 A3012 RMK AO2A SLP212 T01680072 10227 20163 53008 $

TAF TAF ETEB
Valido dal 16 a 13 ore il 17 a 19 ore UTC


161306Z 1613/1719 VRB06KT 9999 FEW100 QNH3009INS
BECMG 1618/1619 VRB06KT 9999 SCT080 QNH3015INS
BECMG 1703/1704 VRB06KT 5000 BR SCT080 QNH3015INS
BECMG 1706/1707 VRB06KT 9999 NSW SCT090 QNH3015INS
BECMG 1710/1711 05006KT 9999 FEW090 QNH3009INS TX23/1613Z TN05/1705Z
Nessun NOTAM noto per questo aeroporto.



MetMap, La meteo Aeronautica in un colpo d'occhio ! - Copyright ORBIFLY Dicembre 2007 - Disclaimer

ORBIFLY MET'MAP TEAM :

Programmazione e sviluppo : Alexandra Zaïnal
Concezione e sviluppo : Baudouin d'Aumeries
Co-Programmazione e sviluppo : Marc-Olivier Méhu
Supporto tecnico e logistico : Manuel Goepfert
Aiuto per la traduzione : Arnaldo La Scala

Contatto : metmap@orbifly.com




FONTI E CREDITI :

   NOAA